STL weather

St Louis Lambert International Airport
St Louis, Missouri, United States

Public forecast

Using degrees Fahrenheit for public forecast. Weather courtesy of forecast.io.

METAR (pilot weather report)

Retrieved 2019/02/17 13:55 UTC (24 minutes ago):

KSTL 171355Z 00000KT 2SM -FZDZ BR OVC011 00/M02 A2977 RMK AO2 P0000 T00001022

TAF (pilot weather forecast)

Retrieved 2019/02/17 12:39 UTC (2 hours ago):

TAF KSTL 171137Z 1712/1818 09005KT P6SM OVC010 FM171300 VRB03KT 3SM -FZDZ BR OVC007 FM171600 VRB03KT 6SM -DZ BR OVC007 FM172200 28009KT P6SM OVC015 FM180300 28009KT P6SM BKN020